createdAt,value
2022-12-13T00:01:23.616Z,87.16
2022-12-13T00:03:56.449Z,87.08
2022-12-13T00:06:22.899Z,86.51
2022-12-13T00:08:49.630Z,86.98
2022-12-13T00:11:16.656Z,87.24
2022-12-13T00:13:43.795Z,87.14
2022-12-13T00:16:12.726Z,86.50
2022-12-13T00:18:39.795Z,86.43
2022-12-13T00:21:08.394Z,86.79
2022-12-13T00:23:35.506Z,86.55
2022-12-13T00:26:15.287Z,87.39
2022-12-13T00:28:42.191Z,88.53
2022-12-13T00:31:51.596Z,89.13
2022-12-13T00:33:56.023Z,89.45
2022-12-13T00:36:22.495Z,88.53
2022-12-13T00:39:00.230Z,89.32
2022-12-13T00:41:30.170Z,89.69
2022-12-13T00:43:57.113Z,90.26
2022-12-13T00:46:23.936Z,91.02
2022-12-13T00:48:52.578Z,90.70
2022-12-13T00:51:20.063Z,90.17
2022-12-13T00:53:47.008Z,89.64
2022-12-13T00:56:16.827Z,89.97
2022-12-13T00:58:48.648Z,89.16
2022-12-13T01:01:21.090Z,89.25
2022-12-13T01:03:47.743Z,87.77
2022-12-13T01:06:16.750Z,87.95
2022-12-13T01:08:44.418Z,90.60
2022-12-13T01:11:10.917Z,93.21
2022-12-13T01:13:38.174Z,94.85
2022-12-13T01:16:06.735Z,93.90
2022-12-13T01:18:33.577Z,93.66
2022-12-13T01:21:34.234Z,92.86
2022-12-13T01:24:05.394Z,91.29
2022-12-13T01:26:32.571Z,90.14
2022-12-13T01:28:59.355Z,88.75
2022-12-13T01:31:26.474Z,89.36
2022-12-13T01:33:52.915Z,89.67
2022-12-13T01:36:27.128Z,89.71
2022-12-13T01:38:58.288Z,90.67
2022-12-13T01:41:27.335Z,90.61
2022-12-13T01:44:05.456Z,90.48
2022-12-13T01:46:34.359Z,90.53
2022-12-13T01:49:20.387Z,90.64
2022-12-13T01:51:59.744Z,89.39
2022-12-13T01:54:33.749Z,89.98
2022-12-13T01:57:06.378Z,90.07
2022-12-13T01:59:36.799Z,90.88
2022-12-13T02:02:04.891Z,90.04
2022-12-13T02:04:44.097Z,89.99
2022-12-13T02:07:14.165Z,89.56
2022-12-13T02:09:56.366Z,90.36
2022-12-13T02:12:29.349Z,91.10
2022-12-13T02:15:00.547Z,91.61
2022-12-13T02:17:55.213Z,91.54
2022-12-13T02:20:30.976Z,89.53
2022-12-13T02:23:18.775Z,88.44
2022-12-13T02:26:02.692Z,87.91
2022-12-13T02:28:44.206Z,88.86
2022-12-13T02:31:15.613Z,90.46
2022-12-13T02:34:12.526Z,90.86
2022-12-13T02:36:57.263Z,91.35
2022-12-13T02:39:31.137Z,90.60
2022-12-13T02:42:02.818Z,89.75
2022-12-13T02:44:32.392Z,90.52
2022-12-13T02:47:05.432Z,91.12
2022-12-13T02:49:46.898Z,91.11
2022-12-13T02:52:22.507Z,90.20
2022-12-13T02:54:49.267Z,90.09
2022-12-13T02:57:29.986Z,90.03
2022-12-13T02:59:59.196Z,90.39
2022-12-13T03:02:42.351Z,89.78
2022-12-13T03:05:45.905Z,90.20
2022-12-13T03:08:15.052Z,90.44
2022-12-13T03:10:49.815Z,89.55
2022-12-13T03:13:37.853Z,89.51
2022-12-13T03:16:25.477Z,88.09
2022-12-13T03:18:55.086Z,88.56
2022-12-13T03:21:22.029Z,86.87
2022-12-13T03:23:48.589Z,86.88
2022-12-13T03:26:20.303Z,86.61
2022-12-13T03:28:57.094Z,87.42
2022-12-13T03:31:23.559Z,86.98
2022-12-13T03:33:50.059Z,87.64
2022-12-13T03:36:18.865Z,87.70
2022-12-13T03:38:47.802Z,88.42
2022-12-13T03:41:17.582Z,89.58
2022-12-13T03:43:44.520Z,90.04
2022-12-13T03:46:11.211Z,90.04
2022-12-13T03:48:38.216Z,89.44
2022-12-13T03:51:05.250Z,90.09
2022-12-13T03:53:34.174Z,89.67
2022-12-13T03:56:03.559Z,89.50
2022-12-13T03:58:35.953Z,91.25
2022-12-13T04:01:09.191Z,90.67
2022-12-13T04:03:37.171Z,90.35
2022-12-13T04:06:04.205Z,90.24
2022-12-13T04:08:30.673Z,89.59
2022-12-13T04:10:57.135Z,89.49
2022-12-13T04:13:32.493Z,89.66
2022-12-13T04:15:58.892Z,88.99
2022-12-13T04:18:25.324Z,88.25
2022-12-13T04:20:51.752Z,89.71
2022-12-13T04:23:34.561Z,90.09
2022-12-13T04:26:01.840Z,89.17
2022-12-13T04:28:28.279Z,88.19
2022-12-13T04:30:54.694Z,87.08
2022-12-13T04:33:22.492Z,87.13
2022-12-13T04:35:49.715Z,87.30
2022-12-13T04:38:16.671Z,88.12
2022-12-13T04:40:43.087Z,88.14
2022-12-13T04:43:09.678Z,89.01
2022-12-13T04:45:36.157Z,89.57
2022-12-13T04:48:02.684Z,90.45
2022-12-13T04:50:29.120Z,90.52
2022-12-13T04:52:55.630Z,90.98
2022-12-13T04:55:22.106Z,91.63
2022-12-13T04:57:48.538Z,90.73
2022-12-13T05:00:15.450Z,90.47
2022-12-13T05:02:42.335Z,91.62
2022-12-13T05:05:12.326Z,92.11
2022-12-13T05:07:41.903Z,92.02
2022-12-13T05:10:11.869Z,92.18
2022-12-13T05:12:49.395Z,93.13
2022-12-13T05:15:37.701Z,94.14
2022-12-13T05:18:09.746Z,94.31
2022-12-13T05:20:38.921Z,94.56
2022-12-13T05:23:05.426Z,94.89
2022-12-13T05:25:33.271Z,94.89
2022-12-13T05:28:08.839Z,94.68
2022-12-13T05:30:38.671Z,94.82
2022-12-13T05:33:10.840Z,94.79
2022-12-13T05:35:37.437Z,94.48
2022-12-13T05:38:20.222Z,94.19
2022-12-13T05:41:15.048Z,93.30
2022-12-13T05:43:43.263Z,94.19
2022-12-13T05:46:42.159Z,93.83
2022-12-13T05:49:08.566Z,92.04
2022-12-13T05:51:47.329Z,92.14
2022-12-13T05:54:14.931Z,90.42
2022-12-13T05:56:41.360Z,89.54
2022-12-13T05:59:07.792Z,88.28
2022-12-13T06:01:35.393Z,90.09
2022-12-13T06:04:01.849Z,89.94
2022-12-13T06:06:28.409Z,90.61
2022-12-13T06:08:55.006Z,89.60
2022-12-13T06:11:32.356Z,89.52
2022-12-13T06:14:00.669Z,88.48
2022-12-13T06:16:27.811Z,86.95
2022-12-13T06:19:03.849Z,87.60
2022-12-13T06:21:41.496Z,88.67
2022-12-13T06:24:10.257Z,89.71
2022-12-13T06:26:36.666Z,90.84
2022-12-13T06:29:03.264Z,90.77
2022-12-13T06:31:29.732Z,90.31
2022-12-13T06:33:56.139Z,90.45
2022-12-13T06:36:22.531Z,91.17
2022-12-13T06:38:48.941Z,91.29
2022-12-13T06:41:17.099Z,90.24
2022-12-13T06:43:45.272Z,90.02
2022-12-13T06:46:12.794Z,89.46
2022-12-13T06:48:40.638Z,89.37
2022-12-13T06:51:08.477Z,90.82
2022-12-13T06:53:37.421Z,90.24
2022-12-13T06:56:06.847Z,90.04
2022-12-13T06:58:34.774Z,90.37
2022-12-13T07:01:03.925Z,89.91
2022-12-13T07:03:31.914Z,90.15
2022-12-13T07:06:06.408Z,91.05
2022-12-13T07:08:32.891Z,91.07
2022-12-13T07:11:02.798Z,91.78
2022-12-13T07:13:31.033Z,91.89
2022-12-13T07:16:00.823Z,92.19
2022-12-13T07:18:27.851Z,91.31
2022-12-13T07:20:54.317Z,93.31
2022-12-13T07:23:24.677Z,96.57
2022-12-13T07:25:53.328Z,97.55
2022-12-13T07:28:20.575Z,97.56
2022-12-13T07:30:47.893Z,98.36
2022-12-13T07:33:22.068Z,97.67
2022-12-13T07:35:49.033Z,97.44
2022-12-13T07:38:22.056Z,96.50
2022-12-13T07:40:48.510Z,97.55
2022-12-13T07:43:17.265Z,97.64
2022-12-13T07:45:44.041Z,97.56
2022-12-13T07:48:10.449Z,97.32
2022-12-13T07:50:37.877Z,96.80
2022-12-13T07:53:07.316Z,96.21
2022-12-13T07:55:34.404Z,96.99
2022-12-13T07:58:12.629Z,95.81
2022-12-13T08:00:45.889Z,96.02
2022-12-13T08:03:24.368Z,94.77
2022-12-13T08:06:10.533Z,94.85
2022-12-13T08:08:37.795Z,95.05
2022-12-13T08:11:09.977Z,95.48
2022-12-13T08:13:36.972Z,95.07
2022-12-13T08:16:25.947Z,96.11
2022-12-13T08:18:53.796Z,95.23
2022-12-13T08:24:20.074Z,95.51
2022-12-13T08:26:46.479Z,95.41
2022-12-13T08:29:13.292Z,95.07
2022-12-13T08:31:50.202Z,94.04
2022-12-13T08:34:16.688Z,94.46
2022-12-13T08:36:43.155Z,93.65
2022-12-13T08:39:09.579Z,94.06
2022-12-13T08:41:39.336Z,94.55
2022-12-13T08:44:06.324Z,94.81
2022-12-13T08:46:32.891Z,93.99
2022-12-13T08:49:00.546Z,93.06
2022-12-13T08:51:30.843Z,93.33
2022-12-13T08:54:10.783Z,92.86
2022-12-13T08:56:38.344Z,92.63
2022-12-13T08:59:05.001Z,92.17
2022-12-13T09:01:31.510Z,92.50
2022-12-13T09:03:58.036Z,91.95
2022-12-13T09:06:24.599Z,91.78
2022-12-13T09:08:53.130Z,90.98
2022-12-13T09:11:20.804Z,91.33
2022-12-13T09:13:51.795Z,90.45
2022-12-13T09:16:24.229Z,89.92
2022-12-13T09:18:55.102Z,89.66
2022-12-13T09:21:31.359Z,90.88
2022-12-13T09:24:01.876Z,89.15
2022-12-13T09:26:29.145Z,89.07
2022-12-13T09:29:11.037Z,89.56
2022-12-13T09:31:40.339Z,88.85
2022-12-13T09:34:07.217Z,89.24
2022-12-13T09:36:33.779Z,89.70
2022-12-13T09:39:00.191Z,89.65
2022-12-13T09:41:40.955Z,89.68
2022-12-13T09:44:32.275Z,90.00
2022-12-13T09:47:00.844Z,89.65
2022-12-13T09:49:35.889Z,88.11
2022-12-13T09:52:11.041Z,88.87
2022-12-13T09:54:47.674Z,88.26
2022-12-13T09:57:32.021Z,88.41
2022-12-13T10:00:02.469Z,87.16
2022-12-13T10:02:32.001Z,85.79
2022-12-13T10:05:25.390Z,84.16
2022-12-13T10:08:17.648Z,86.14
2022-12-13T10:10:44.346Z,86.52
2022-12-13T10:13:16.531Z,85.61
2022-12-13T10:15:47.638Z,85.63
2022-12-13T10:18:24.787Z,85.71
2022-12-13T10:20:53.027Z,84.34
2022-12-13T10:23:59.284Z,84.08
2022-12-13T10:26:23.951Z,81.84
2022-12-13T10:28:52.835Z,80.54
2022-12-13T10:31:20.731Z,81.80
2022-12-13T10:33:56.902Z,83.09
2022-12-13T10:36:38.374Z,82.38
2022-12-13T10:39:04.894Z,83.06
2022-12-13T10:41:38.414Z,82.37
2022-12-13T10:44:25.307Z,80.18
2022-12-13T10:47:10.100Z,80.21
2022-12-13T10:49:47.721Z,82.15
2022-12-13T10:52:33.667Z,82.79
2022-12-13T10:55:22.796Z,82.41
2022-12-13T10:57:56.764Z,81.83
2022-12-13T11:00:37.086Z,82.34
2022-12-13T11:03:04.225Z,77.67
2022-12-13T11:05:33.955Z,77.81
2022-12-13T11:08:14.324Z,80.09
2022-12-13T11:10:41.079Z,80.28
2022-12-13T11:13:08.170Z,80.42
2022-12-13T11:15:37.809Z,79.61
2022-12-13T11:18:23.172Z,80.53
2022-12-13T11:21:04.230Z,81.13
2022-12-13T11:23:38.101Z,80.89
2022-12-13T11:26:16.766Z,81.90
2022-12-13T11:29:18.885Z,81.65
2022-12-13T11:32:00.856Z,83.02
2022-12-13T11:34:51.526Z,82.71
2022-12-13T11:37:33.340Z,81.80
2022-12-13T11:40:31.895Z,81.49
2022-12-13T11:43:21.098Z,82.05
2022-12-13T11:45:55.869Z,81.90
2022-12-13T11:48:39.307Z,80.89
2022-12-13T11:51:07.878Z,78.94
2022-12-13T11:53:49.659Z,78.07
2022-12-13T11:56:23.883Z,77.62
2022-12-13T11:59:11.988Z,79.14
2022-12-13T12:01:53.245Z,80.15
2022-12-13T12:04:44.221Z,80.53
2022-12-13T12:07:31.985Z,80.51
2022-12-13T12:10:21.108Z,79.34
2022-12-13T12:12:55.552Z,80.70
2022-12-13T12:15:27.047Z,80.67
2022-12-13T12:17:55.539Z,80.77
2022-12-13T12:20:41.957Z,79.73
2022-12-13T12:23:23.159Z,79.68
2022-12-13T12:25:57.689Z,80.81
2022-12-13T12:28:34.406Z,79.60
2022-12-13T12:31:23.828Z,80.47
2022-12-13T12:34:13.245Z,81.20
2022-12-13T12:36:51.186Z,79.44
2022-12-13T12:39:59.460Z,80.25
2022-12-13T12:43:14.271Z,78.97
2022-12-13T12:45:56.413Z,79.84
2022-12-13T12:51:39.605Z,81.68
2022-12-13T12:54:35.443Z,81.28
2022-12-13T12:57:29.092Z,79.28
2022-12-13T13:00:17.660Z,80.62
2022-12-13T13:03:05.263Z,78.63
2022-12-13T13:05:48.095Z,77.75
2022-12-13T13:08:28.860Z,77.49
2022-12-13T13:11:01.816Z,78.71
2022-12-13T13:14:01.739Z,78.17
2022-12-13T13:16:33.350Z,80.88
2022-12-13T13:19:34.748Z,81.40
2022-12-13T13:22:53.752Z,81.79
2022-12-13T13:25:35.189Z,80.86
2022-12-13T13:28:17.876Z,80.95
2022-12-13T13:31:10.390Z,78.60
2022-12-13T13:33:47.344Z,80.35
2022-12-13T13:36:38.785Z,79.78
2022-12-13T13:39:19.249Z,78.61
2022-12-13T13:41:56.862Z,79.22
2022-12-13T13:45:01.935Z,81.04
2022-12-13T13:47:33.979Z,82.36
2022-12-13T13:50:12.411Z,81.30
2022-12-13T13:53:21.458Z,82.07
2022-12-13T13:56:19.614Z,82.56
2022-12-13T14:02:58.423Z,82.52
2022-12-13T14:06:14.880Z,81.43
2022-12-13T14:09:20.556Z,81.18
2022-12-13T14:12:02.572Z,83.11
2022-12-13T14:15:01.464Z,83.62
2022-12-13T14:17:49.952Z,83.03
2022-12-13T14:20:42.585Z,81.85
2022-12-13T14:24:07.366Z,82.27
2022-12-13T14:27:31.556Z,81.73
2022-12-13T14:29:59.084Z,81.95
2022-12-13T14:32:32.748Z,82.34
2022-12-13T14:35:25.827Z,81.57
2022-12-13T14:37:56.849Z,82.78
2022-12-13T14:40:56.393Z,83.18
2022-12-13T14:43:26.874Z,83.02
2022-12-13T14:46:19.155Z,82.28
2022-12-13T14:48:49.444Z,84.47
2022-12-13T14:51:30.434Z,83.36
2022-12-13T14:53:56.966Z,83.24
2022-12-13T14:56:54.828Z,83.03
2022-12-13T14:59:25.775Z,84.20
2022-12-13T15:02:00.326Z,85.89
2022-12-13T15:04:29.332Z,84.92
2022-12-13T15:07:01.691Z,85.40
2022-12-13T15:09:42.318Z,85.07
2022-12-13T15:12:24.430Z,85.71
2022-12-13T15:15:14.499Z,85.20
2022-12-13T15:17:45.035Z,85.81
2022-12-13T15:20:23.983Z,84.03
2022-12-13T15:23:10.775Z,84.90
2022-12-13T15:25:38.005Z,85.44
2022-12-13T15:28:18.253Z,84.68
2022-12-13T15:31:06.285Z,86.27
2022-12-13T15:34:28.337Z,86.89
2022-12-13T15:37:28.323Z,86.84
2022-12-13T15:39:59.851Z,87.42
2022-12-13T15:42:47.017Z,87.22
2022-12-13T15:45:31.770Z,88.16
2022-12-13T15:48:06.178Z,87.69
2022-12-13T15:50:41.005Z,88.24
2022-12-13T15:53:28.941Z,87.68
2022-12-13T15:55:55.886Z,88.29
2022-12-13T15:58:40.377Z,88.76
2022-12-13T16:01:30.576Z,87.79
2022-12-13T16:03:57.546Z,88.53
2022-12-13T16:06:26.408Z,88.24
2022-12-13T16:08:59.866Z,88.34
2022-12-13T16:11:34.195Z,89.05
2022-12-13T16:14:49.477Z,88.94
2022-12-13T16:17:24.969Z,89.62
2022-12-13T16:19:55.920Z,89.67
2022-12-13T16:22:24.028Z,88.96
2022-12-13T16:24:52.876Z,89.41
2022-12-13T16:27:19.689Z,89.40
2022-12-13T16:30:15.939Z,87.93
2022-12-13T16:33:10.806Z,89.09
2022-12-13T16:35:45.206Z,89.98
2022-12-13T16:38:17.801Z,89.69
2022-12-13T16:41:09.282Z,88.82
2022-12-13T16:44:10.626Z,88.85
2022-12-13T16:47:18.702Z,90.03
2022-12-13T16:49:34.707Z,89.70
2022-12-13T16:52:05.007Z,89.02
2022-12-13T16:54:39.735Z,89.26
2022-12-13T16:57:21.306Z,88.69
2022-12-13T16:59:55.013Z,89.38
2022-12-13T17:02:25.645Z,89.91
2022-12-13T17:04:54.132Z,89.90
2022-12-13T17:07:20.555Z,90.34
2022-12-13T17:10:04.896Z,89.85
2022-12-13T17:12:50.610Z,89.73
2022-12-13T17:15:17.186Z,89.65
2022-12-13T17:17:45.178Z,89.57
2022-12-13T17:20:47.036Z,90.35
2022-12-13T17:23:36.014Z,90.11
2022-12-13T17:26:06.914Z,89.30
2022-12-13T17:28:34.262Z,89.86
2022-12-13T17:31:09.744Z,90.09
2022-12-13T17:33:50.518Z,89.42
2022-12-13T17:36:38.748Z,89.96
2022-12-13T17:39:12.059Z,90.12
2022-12-13T17:41:54.787Z,90.14
2022-12-13T17:44:23.376Z,89.95
2022-12-13T17:46:55.092Z,90.12
2022-12-13T17:49:22.261Z,90.63
2022-12-13T17:51:51.411Z,90.34
2022-12-13T17:54:18.664Z,90.85
2022-12-13T17:56:45.117Z,90.56
2022-12-13T17:59:13.301Z,89.53
2022-12-13T18:01:39.776Z,89.67
2022-12-13T18:04:06.245Z,89.68
2022-12-13T18:06:39.519Z,89.97
2022-12-13T18:09:08.131Z,90.13
2022-12-13T18:11:43.135Z,90.19
2022-12-13T18:14:41.743Z,90.61
2022-12-13T18:17:08.203Z,90.44
2022-12-13T18:19:34.642Z,89.96
2022-12-13T18:22:10.403Z,89.98
2022-12-13T18:24:36.992Z,90.55
2022-12-13T18:27:03.648Z,89.92
2022-12-13T18:29:36.405Z,89.50
2022-12-13T18:32:03.643Z,90.96
2022-12-13T18:35:04.468Z,89.68
2022-12-13T18:37:30.875Z,90.94
2022-12-13T18:39:57.270Z,91.41
2022-12-13T18:42:23.678Z,90.69
2022-12-13T18:44:54.189Z,88.98
2022-12-13T18:47:21.363Z,89.96
2022-12-13T18:49:55.096Z,89.39
2022-12-13T18:52:37.300Z,89.99
2022-12-13T18:55:04.073Z,90.46
2022-12-13T18:57:37.479Z,90.98
2022-12-13T19:00:05.174Z,91.83
2022-12-13T19:02:45.099Z,91.39
2022-12-13T19:05:14.904Z,92.07
2022-12-13T19:07:48.468Z,91.85
2022-12-13T19:10:16.089Z,92.11
2022-12-13T19:13:14.641Z,91.07
2022-12-13T19:15:44.927Z,91.12
2022-12-13T19:18:14.930Z,92.00
2022-12-13T19:20:46.842Z,91.58
2022-12-13T19:23:13.311Z,91.84
2022-12-13T19:25:52.809Z,91.90
2022-12-13T19:28:44.497Z,91.37
2022-12-13T19:31:15.611Z,91.13
2022-12-13T19:33:42.740Z,91.67
2022-12-13T19:36:11.341Z,91.61
2022-12-13T19:38:38.518Z,91.49
2022-12-13T19:41:17.212Z,91.65
2022-12-13T19:43:50.621Z,91.58
2022-12-13T19:46:18.921Z,91.18
2022-12-13T19:49:01.558Z,91.20
2022-12-13T19:51:39.803Z,91.59
2022-12-13T19:54:13.799Z,91.03
2022-12-13T19:56:47.442Z,92.02
2022-12-13T19:59:20.117Z,92.05
2022-12-13T20:01:57.218Z,91.66
2022-12-13T20:04:25.934Z,91.85
2022-12-13T20:07:18.415Z,91.92
2022-12-13T20:09:44.825Z,92.89
2022-12-13T20:12:11.284Z,92.00
2022-12-13T20:14:37.885Z,92.56
2022-12-13T20:17:16.733Z,92.59
2022-12-13T20:19:43.270Z,93.12
2022-12-13T20:22:26.682Z,93.08
2022-12-13T20:24:54.400Z,92.84
2022-12-13T20:27:26.069Z,93.90
2022-12-13T20:29:53.465Z,94.01
2022-12-13T20:32:21.002Z,93.75
2022-12-13T20:34:54.531Z,94.00
2022-12-13T20:37:21.789Z,93.88
2022-12-13T20:39:48.295Z,94.01
2022-12-13T20:42:20.862Z,94.58
2022-12-13T20:45:04.008Z,94.75
2022-12-13T20:47:33.907Z,94.89
2022-12-13T20:50:07.792Z,95.78
2022-12-13T20:52:34.189Z,95.95
2022-12-13T20:55:00.731Z,96.82
2022-12-13T20:57:34.205Z,97.08
2022-12-13T21:00:00.759Z,97.85
2022-12-13T21:02:37.768Z,97.51
2022-12-13T21:05:05.611Z,98.25
2022-12-13T21:08:06.850Z,98.42
2022-12-13T21:10:33.252Z,98.65
2022-12-13T21:12:59.659Z,98.23
2022-12-13T21:15:26.063Z,99.08
2022-12-13T21:17:52.458Z,98.58
2022-12-13T21:20:23.147Z,98.16
2022-12-13T21:22:49.575Z,98.06
2022-12-13T21:25:16.013Z,98.48
2022-12-13T21:27:51.570Z,98.32
2022-12-13T21:31:11.648Z,97.34
2022-12-13T21:33:39.385Z,98.04
2022-12-13T21:36:16.419Z,97.30
2022-12-13T21:38:44.028Z,98.39
2022-12-13T21:41:11.395Z,97.95
2022-12-13T21:43:58.707Z,97.59
2022-12-13T21:46:47.847Z,97.64
2022-12-13T21:49:16.165Z,97.24
2022-12-13T21:51:47.572Z,97.30
2022-12-13T21:54:14.816Z,96.86
2022-12-13T21:56:59.659Z,96.93
2022-12-13T21:59:28.605Z,97.18
2022-12-13T22:02:11.739Z,96.56
2022-12-13T22:04:53.103Z,95.96
2022-12-13T22:07:22.529Z,96.69
2022-12-13T22:09:52.458Z,95.91
2022-12-13T22:12:26.365Z,96.36
2022-12-13T22:14:53.602Z,96.54
2022-12-13T22:17:24.939Z,96.41
2022-12-13T22:20:02.082Z,96.65
2022-12-13T22:22:28.725Z,97.29
2022-12-13T22:24:55.233Z,96.81
2022-12-13T22:27:25.568Z,97.44
2022-12-13T22:29:59.686Z,96.39
2022-12-13T22:32:28.612Z,96.47
2022-12-13T22:34:55.166Z,97.25
2022-12-13T22:37:22.164Z,97.76
2022-12-13T22:39:48.567Z,98.60
2022-12-13T22:42:20.329Z,98.77
2022-12-13T22:44:46.883Z,99.49
2022-12-13T22:47:13.309Z,99.27
2022-12-13T22:49:40.161Z,99.29
2022-12-13T22:52:06.935Z,99.92
2022-12-13T22:54:33.332Z,99.79
2022-12-13T22:56:59.731Z,99.77
2022-12-13T22:59:26.153Z,100.00
2022-12-13T23:02:05.054Z,100.00
2022-12-13T23:04:31.988Z,100.00
2022-12-13T23:06:58.744Z,100.00
2022-12-13T23:09:25.137Z,100.00
2022-12-13T23:12:10.159Z,100.00
2022-12-13T23:14:36.592Z,100.00
2022-12-13T23:17:04.374Z,100.00
2022-12-13T23:19:49.803Z,100.00
2022-12-13T23:22:21.166Z,100.00
2022-12-13T23:24:47.652Z,100.00
2022-12-13T23:27:14.256Z,100.00
2022-12-13T23:29:40.751Z,100.00
2022-12-13T23:32:07.212Z,100.00
2022-12-13T23:34:33.733Z,100.00
2022-12-13T23:37:00.154Z,100.00
2022-12-13T23:39:26.710Z,100.00
2022-12-13T23:41:53.133Z,100.00
2022-12-13T23:44:27.810Z,100.00
2022-12-13T23:46:55.268Z,100.00
2022-12-13T23:49:21.704Z,100.00
2022-12-13T23:51:48.142Z,100.00
2022-12-13T23:54:17.645Z,100.00
2022-12-13T23:56:44.086Z,100.00
2022-12-13T23:59:11.044Z,100.00
